KAEX/AEX METAR and TAF weather

Enter ICAO airport designator
Station Type Date Time Source
KAEX METAR 2019/08/21 22:53 UTC NOAA

KAEX 212253Z 13008KT 10SM FEW055 34/22 A2994 RMK AO2 LTG DSNT NE AND E SLP139 T03440217


Station Type Date Time Source
KAEX Decoded METAR 2019/08/21 22:53 UTC NOAA

Station name not available
Aug 21, 2019 - 06:53 PM EDT / 2019.08.21 2253 UTC
Wind: from the SE (130 degrees) at 9 MPH (8 KT):0
Visibility: 10 mile(s):0
Sky conditions: mostly clear
Weather: Lightning observed
Temperature: 93.9 F (34.4 C)
Heat index: 100.8 F (38.2 C):1
Dew Point: 71.1 F (21.7 C)
Relative Humidity: 47%
Pressure (altimeter): 29.94 in. Hg (1013 hPa)
ob: KAEX 212253Z 13008KT 10SM FEW055 34/22 A2994 RMK AO2 LTG DSNT NE AND E SLP139 T03440217
cycle: 23

Station Type Date Time Source
KAEX TAF 2019/08/21 21:52 UTC NOAA

TAF
AMD KAEX 212049Z 2121/2218 VRB06KT P6SM VCTS SCT035CB
TEMPO 2122/2201 4SM TSRA BKN025CB
FM220100 VRB05KT P6SM SCT250
FM221500 16006KT P6SM VCTS SCT025CB

Example: see airport list